Time;durP1;ratioP1;P1;durP2;ratioP2;P2;SDS_P1;SDS_P2;PMS_P1;PMS_P2;Temp;Humidity;BMP_temperature;BMP_pressure;BME280_temperature;BME280_humidity;BME280_pressure;Samples;Min_cycle;Max_cycle;Signal;HPM_P1;HPM_P2
2021/08/31 00:00:20;;;;;;;38.77;35.97;;;15.90;99.90;;;;;;4895651;29;20463;-76
2021/08/31 00:02:47;;;;;;;38.03;35.17;;;16.00;99.90;;;;;;4895499;29;20458;-76
2021/08/31 00:05:15;;;;;;;39.00;36.17;;;16.10;99.90;;;;;;4894048;29;20813;-77
2021/08/31 00:07:43;;;;;;;38.17;35.40;;;16.00;99.90;;;;;;4895668;29;20812;-76
2021/08/31 00:10:11;;;;;;;39.07;36.23;;;16.00;99.90;;;;;;4895669;29;20495;-77
2021/08/31 00:12:39;;;;;;;41.00;37.43;;;16.10;99.90;;;;;;4895412;29;20467;-76
2021/08/31 00:15:07;;;;;;;38.50;35.40;;;16.10;99.90;;;;;;4895431;29;20456;-77
2021/08/31 00:17:35;;;;;;;37.13;34.60;;;16.10;99.90;;;;;;4893563;29;20459;-78
2021/08/31 00:20:04;;;;;;;37.03;34.13;;;16.00;99.90;;;;;;4895367;29;20466;-76
2021/08/31 00:22:30;;;;;;;35.47;32.73;;;16.00;99.90;;;;;;4895490;29;20486;-76
2021/08/31 00:24:57;;;;;;;38.20;35.50;;;16.00;99.90;;;;;;4895454;29;20463;-76
2021/08/31 00:27:24;;;;;;;38.37;34.80;;;16.00;99.90;;;;;;4895216;29;20487;-77
2021/08/31 00:29:50;;;;;;;35.17;32.87;;;16.00;99.90;;;;;;4894349;29;20514;-76
2021/08/31 00:32:17;;;;;;;34.37;31.97;;;16.00;99.90;;;;;;4895187;29;20459;-76
2021/08/31 00:34:45;;;;;;;34.93;32.53;;;15.90;99.90;;;;;;4895219;29;20463;-76
2021/08/31 00:37:12;;;;;;;35.23;32.70;;;15.90;99.90;;;;;;4895232;29;20826;-76
2021/08/31 00:39:38;;;;;;;33.87;31.60;;;15.90;99.90;;;;;;4895234;29;20451;-76
2021/08/31 00:42:05;;;;;;;33.00;30.90;;;15.90;99.90;;;;;;4893544;29;20466;-76
2021/08/31 00:44:32;;;;;;;34.20;31.80;;;15.80;99.90;;;;;;4895104;29;20486;-76
2021/08/31 00:47:01;;;;;;;34.60;32.17;;;15.80;99.90;;;;;;4894890;29;20491;-75
2021/08/31 00:49:28;;;;;;;34.03;31.93;;;15.90;99.90;;;;;;4895061;29;20455;-76
2021/08/31 00:51:58;;;;;;;35.07;32.50;;;15.80;99.90;;;;;;4895144;29;20510;-75
2021/08/31 00:54:25;;;;;;;35.83;33.23;;;15.80;99.90;;;;;;4895115;29;21005;-76
2021/08/31 00:56:53;;;;;;;35.43;32.97;;;15.80;99.90;;;;;;4897104;29;20474;-76
2021/08/31 00:59:20;;;;;;;34.80;32.30;;;15.80;99.90;;;;;;4903298;29;20863;-75
2021/08/31 01:01:47;;;;;;;36.73;34.13;;;15.90;99.90;;;;;;4895158;29;20458;-74
2021/08/31 01:04:14;;;;;;;33.93;31.73;;;15.90;99.90;;;;;;4894826;29;20456;-75
2021/08/31 01:06:40;;;;;;;32.70;30.60;;;15.90;99.90;;;;;;4895150;29;20459;-75
2021/08/31 01:09:09;;;;;;;35.73;33.30;;;15.90;99.90;;;;;;4894870;29;20462;-75
2021/08/31 01:11:37;;;;;;;36.37;33.90;;;15.80;99.90;;;;;;4894776;29;20495;-74
2021/08/31 01:14:05;;;;;;;36.43;33.73;;;15.90;99.90;;;;;;4894519;29;20462;-76
2021/08/31 01:16:31;;;;;;;33.97;31.67;;;15.90;99.90;;;;;;4894963;29;20455;-76
2021/08/31 01:18:58;;;;;;;35.10;32.77;;;16.00;99.90;;;;;;4894890;29;20462;-76
2021/08/31 01:21:25;;;;;;;36.20;33.53;;;15.90;99.90;;;;;;4895310;29;20547;-76
2021/08/31 01:23:51;;;;;;;36.30;33.57;;;16.00;99.90;;;;;;4894498;29;20941;-76
2021/08/31 01:26:20;;;;;;;34.77;32.37;;;16.00;99.90;;;;;;4894733;29;20451;-75
2021/08/31 01:28:47;;;;;;;36.57;33.67;;;16.00;99.90;;;;;;4894733;29;20869;-76
2021/08/31 01:31:14;;;;;;;35.60;33.10;;;16.00;99.90;;;;;;4893230;29;20513;-76
2021/08/31 01:33:41;;;;;;;36.67;33.53;;;16.00;99.90;;;;;;4894733;29;20459;-75
2021/08/31 01:36:15;;;;;;;36.67;33.90;;;16.10;99.90;;;;;;4894991;29;20463;-75
2021/08/31 01:38:43;;;;;;;36.57;33.97;;;16.10;99.90;;;;;;4895044;29;20467;-76
2021/08/31 01:41:11;;;;;;;36.27;33.50;;;16.10;99.90;;;;;;4896396;29;20459;-76
2021/08/31 01:43:39;;;;;;;37.77;34.97;;;16.10;99.90;;;;;;4898017;29;20459;-75
2021/08/31 01:46:06;;;;;;;36.10;33.27;;;16.10;99.90;;;;;;4897688;29;20474;-75
2021/08/31 01:48:32;;;;;;;36.77;34.07;;;16.10;99.90;;;;;;4895976;29;20475;-77
2021/08/31 01:50:59;;;;;;;36.37;33.67;;;16.20;99.90;;;;;;4897776;29;20495;-77
2021/08/31 01:53:26;;;;;;;36.33;33.33;;;16.10;99.90;;;;;;4898124;29;20451;-77
2021/08/31 01:55:53;;;;;;;35.07;32.57;;;16.00;99.90;;;;;;4897961;29;20454;-77
2021/08/31 01:58:19;;;;;;;38.10;35.20;;;16.00;99.90;;;;;;4896005;29;20455;-76
2021/08/31 02:00:47;;;;;;;37.70;34.63;;;16.10;99.90;;;;;;4897703;29;20451;-76
2021/08/31 02:03:14;;;;;;;39.40;36.27;;;16.10;99.90;;;;;;4897647;29;20466;-76
2021/08/31 02:05:41;;;;;;;39.67;36.77;;;16.10;99.90;;;;;;4897768;29;20536;-76
2021/08/31 02:08:07;;;;;;;40.57;37.40;;;16.00;99.90;;;;;;4897654;29;20475;-76
2021/08/31 02:10:34;;;;;;;38.70;35.63;;;16.00;99.90;;;;;;4897282;29;20856;-76
2021/08/31 02:13:02;;;;;;;38.00;35.17;;;16.00;99.90;;;;;;4897482;29;20478;-76
2021/08/31 02:15:28;;;;;;;39.07;36.03;;;16.10;99.90;;;;;;4895968;29;20535;-76
2021/08/31 02:17:57;;;;;;;41.00;37.50;;;16.00;99.90;;;;;;4897925;29;20451;-76
2021/08/31 02:20:24;;;;;;;37.63;34.70;;;16.00;99.90;;;;;;4897392;29;20459;-76
2021/08/31 02:22:50;;;;;;;41.53;37.73;;;15.90;99.90;;;;;;4897536;29;20463;-76
2021/08/31 02:25:17;;;;;;;41.00;37.80;;;15.90;99.90;;;;;;4897156;29;20462;-76
2021/08/31 02:27:44;;;;;;;39.63;36.40;;;15.90;99.90;;;;;;4897480;29;20455;-76
2021/08/31 02:30:12;;;;;;;40.70;37.13;;;15.80;99.90;;;;;;4897381;29;20968;-76
2021/08/31 02:32:38;;;;;;;40.13;36.63;;;15.70;99.90;;;;;;4897122;29;20971;-74
2021/08/31 02:35:08;;;;;;;41.00;37.27;;;15.80;99.90;;;;;;4896997;29;20462;-74
2021/08/31 02:37:35;;;;;;;40.63;36.93;;;15.70;99.90;;;;;;4896917;29;20828;-74
2021/08/31 02:40:02;;;;;;;41.50;37.93;;;15.70;99.90;;;;;;4897214;29;20455;-75
2021/08/31 02:42:28;;;;;;;41.70;38.03;;;15.80;99.90;;;;;;4897156;29;20452;-73
2021/08/31 02:44:55;;;;;;;40.47;37.17;;;15.70;99.90;;;;;;4897214;29;20455;-76
2021/08/31 02:47:22;;;;;;;41.07;37.80;;;15.70;99.90;;;;;;4896693;29;20495;-73
2021/08/31 02:49:48;;;;;;;43.17;39.47;;;15.80;99.90;;;;;;4896707;29;20836;-75
2021/08/31 02:52:17;;;;;;;42.13;38.80;;;15.60;99.90;;;;;;4896033;29;20495;-75
2021/08/31 02:54:44;;;;;;;41.03;37.63;;;15.60;99.90;;;;;;4897101;29;20539;-75
2021/08/31 02:57:10;;;;;;;42.20;38.70;;;15.50;99.90;;;;;;4896809;29;20455;-76
2021/08/31 02:59:37;;;;;;;45.23;41.10;;;15.50;99.90;;;;;;4896688;29;20464;-76
2021/08/31 03:02:07;;;;;;;44.67;40.77;;;15.40;99.90;;;;;;4896489;29;20584;-76
2021/08/31 03:04:35;;;;;;;44.87;40.60;;;15.40;99.90;;;;;;4896379;29;20682;-76
2021/08/31 03:07:02;;;;;;;42.53;38.70;;;15.40;99.90;;;;;;4896387;29;20468;-74
2021/08/31 03:09:31;;;;;;;45.57;41.37;;;15.50;99.90;;;;;;4896736;29;20459;-75
2021/08/31 03:11:57;;;;;;;45.17;41.07;;;15.50;99.90;;;;;;4896380;29;20506;-77
2021/08/31 03:14:24;;;;;;;42.97;38.80;;;15.50;99.90;;;;;;4896606;29;20466;-76
2021/08/31 03:16:51;;;;;;;44.07;39.97;;;15.60;99.90;;;;;;4895985;29;20459;-75
2021/08/31 03:19:20;;;;;;;44.90;40.53;;;15.60;99.90;;;;;;4896576;29;20459;-75
2021/08/31 03:21:47;;;;;;;44.67;40.70;;;15.60;99.90;;;;;;4896146;29;20945;-75
2021/08/31 03:24:14;;;;;;;43.07;39.27;;;15.70;99.90;;;;;;4896077;29;20459;-75
2021/08/31 03:26:43;;;;;;;44.13;40.17;;;15.60;99.90;;;;;;4896155;29;20451;-74
2021/08/31 03:29:10;;;;;;;44.20;40.20;;;15.70;99.90;;;;;;4894366;29;20466;-75
2021/08/31 03:31:36;;;;;;;41.83;37.97;;;15.70;99.90;;;;;;4895679;29;20494;-75
2021/08/31 03:34:03;;;;;;;43.07;39.13;;;15.80;99.90;;;;;;4895871;29;20478;-75
2021/08/31 03:36:30;;;;;;;43.07;39.50;;;15.70;99.90;;;;;;4895832;29;20451;-75
2021/08/31 03:38:57;;;;;;;42.73;39.40;;;15.70;99.90;;;;;;4896042;29;20459;-75
2021/08/31 03:41:23;;;;;;;42.87;39.20;;;15.70;99.90;;;;;;4896020;29;20467;-74
2021/08/31 03:43:52;;;;;;;42.27;38.90;;;15.70;99.90;;;;;;4895770;29;20463;-75
2021/08/31 03:46:18;;;;;;;45.80;41.57;;;15.80;99.90;;;;;;4895676;29;20847;-74
2021/08/31 03:48:45;;;;;;;40.37;37.17;;;15.80;99.90;;;;;;4895456;29;20483;-74
2021/08/31 03:51:12;;;;;;;40.90;37.50;;;15.80;99.90;;;;;;4895808;29;20487;-74
2021/08/31 03:53:39;;;;;;;40.07;36.50;;;15.70;99.90;;;;;;4895490;29;21049;-76
2021/08/31 03:56:05;;;;;;;40.60;37.27;;;15.80;99.90;;;;;;4895616;29;20466;-75
2021/08/31 03:58:32;;;;;;;39.73;36.50;;;15.90;99.90;;;;;;4895528;29;20470;-74
2021/08/31 04:01:00;;;;;;;40.27;36.63;;;15.90;99.90;;;;;;4895328;29;20455;-75
2021/08/31 04:03:27;;;;;;;38.77;35.43;;;16.00;99.90;;;;;;4895573;29;20455;-75
2021/08/31 04:05:53;;;;;;;40.80;37.20;;;16.00;99.90;;;;;;4895849;29;20499;-75
2021/08/31 04:08:20;;;;;;;40.07;36.57;;;15.90;99.90;;;;;;4895493;29;20459;-75
2021/08/31 04:10:47;;;;;;;38.93;35.50;;;15.90;99.90;;;;;;4895490;29;20937;-74
2021/08/31 04:13:17;;;;;;;39.87;36.60;;;15.90;99.90;;;;;;4895436;29;20482;-74
2021/08/31 04:15:44;;;;;;;38.70;35.40;;;16.00;99.90;;;;;;4895013;29;21257;-74
2021/08/31 04:18:12;;;;;;;39.50;36.37;;;16.00;99.90;;;;;;4895526;29;20455;-74
2021/08/31 04:20:39;;;;;;;39.00;35.77;;;16.00;99.90;;;;;;4895357;29;20459;-75
2021/08/31 04:23:06;;;;;;;40.40;36.90;;;16.10;99.90;;;;;;4895360;29;20928;-75
2021/08/31 04:25:32;;;;;;;41.97;38.20;;;15.90;99.90;;;;;;4893598;29;20455;-75
2021/08/31 04:27:59;;;;;;;41.90;38.30;;;15.90;99.90;;;;;;4895260;29;20954;-75
2021/08/31 04:30:27;;;;;;;39.67;36.23;;;15.90;99.90;;;;;;4895223;29;20459;-75
2021/08/31 04:32:53;;;;;;;39.90;36.00;;;16.00;99.90;;;;;;4895631;29;20518;-75
2021/08/31 04:35:22;;;;;;;37.50;34.40;;;16.10;99.90;;;;;;4895032;29;20937;-75
2021/08/31 04:37:48;;;;;;;38.63;35.60;;;16.10;99.90;;;;;;4895103;29;20964;-75
2021/08/31 04:40:15;;;;;;;39.47;36.27;;;16.20;99.90;;;;;;4895224;29;20463;-75
2021/08/31 04:42:42;;;;;;;37.17;34.07;;;16.20;99.90;;;;;;4895350;29;20447;-74
2021/08/31 04:45:09;;;;;;;40.33;36.93;;;16.10;99.90;;;;;;4895148;29;20455;-75
2021/08/31 04:47:36;;;;;;;36.40;33.33;;;16.00;99.90;;;;;;4894342;29;20487;-75
2021/08/31 04:50:04;;;;;;;39.20;35.93;;;16.10;99.90;;;;;;4894838;29;20470;-75
2021/08/31 04:52:32;;;;;;;36.90;33.90;;;16.10;99.90;;;;;;4894819;29;20487;-74
2021/08/31 04:54:59;;;;;;;35.97;32.97;;;16.10;99.90;;;;;;4895001;29;20463;-74
2021/08/31 04:57:26;;;;;;;37.10;34.10;;;16.10;99.90;;;;;;4894945;29;20463;-75
2021/08/31 04:59:52;;;;;;;37.13;33.97;;;16.10;99.90;;;;;;4894903;29;20557;-74
2021/08/31 05:02:20;;;;;;;38.67;34.97;;;16.00;99.90;;;;;;4894694;29;20451;-75
2021/08/31 05:04:47;;;;;;;37.60;34.50;;;16.10;99.90;;;;;;4893203;29;20459;-75
2021/08/31 05:07:14;;;;;;;36.20;32.97;;;16.10;99.90;;;;;;4894966;29;20593;-74
2021/08/31 05:09:43;;;;;;;39.50;36.13;;;16.00;99.90;;;;;;4894826;29;20528;-75
2021/08/31 05:12:10;;;;;;;36.10;32.43;;;16.00;99.90;;;;;;4894897;29;20495;-74
2021/08/31 05:14:36;;;;;;;38.10;34.60;;;16.00;99.90;;;;;;4895061;29;20459;-74
2021/08/31 05:17:04;;;;;;;36.97;33.60;;;16.10;99.90;;;;;;4897635;29;20466;-75
2021/08/31 05:19:32;;;;;;;36.10;33.07;;;16.00;99.90;;;;;;4898283;29;20459;-74
2021/08/31 05:22:00;;;;;;;35.30;32.30;;;16.10;99.90;;;;;;4898481;29;20549;-75
2021/08/31 05:24:28;;;;;;;35.53;32.30;;;16.10;99.90;;;;;;4898506;29;20455;-75
2021/08/31 05:26:57;;;;;;;36.97;32.40;;;16.10;99.90;;;;;;4898500;29;20451;-75
2021/08/31 05:29:23;;;;;;;31.80;29.13;;;16.20;99.90;;;;;;4896758;29;20463;-74
2021/08/31 05:31:50;;;;;;;32.97;29.87;;;16.20;99.90;;;;;;4898070;29;20931;-75
2021/08/31 05:34:17;;;;;;;34.80;32.10;;;16.20;99.90;;;;;;4898131;29;20455;-74
2021/08/31 05:36:44;;;;;;;31.00;28.60;;;16.20;99.90;;;;;;4897994;29;20465;-74
2021/08/31 05:39:10;;;;;;;32.77;30.20;;;16.20;99.90;;;;;;4898441;29;20455;-75
2021/08/31 05:41:37;;;;;;;33.70;30.70;;;16.30;99.90;;;;;;4897955;29;20954;-76
2021/08/31 05:44:05;;;;;;;34.00;31.10;;;16.40;99.90;;;;;;4898054;29;20481;-74
2021/08/31 05:46:33;;;;;;;34.77;31.97;;;16.50;99.90;;;;;;4897768;29;20897;-76
2021/08/31 05:48:59;;;;;;;35.27;32.23;;;16.50;99.90;;;;;;4897383;29;20498;-75
2021/08/31 05:51:27;;;;;;;30.97;28.30;;;16.60;99.90;;;;;;4897944;29;21027;-74
2021/08/31 05:53:54;;;;;;;31.67;28.70;;;16.60;99.90;;;;;;4897864;29;20545;-75
2021/08/31 05:56:20;;;;;;;31.43;28.73;;;16.70;99.90;;;;;;4897628;29;20451;-75
2021/08/31 05:58:47;;;;;;;30.90;28.50;;;16.70;99.90;;;;;;4897814;29;20464;-75
2021/08/31 06:01:15;;;;;;;30.83;28.30;;;16.70;99.90;;;;;;4897499;29;20789;-75
2021/08/31 06:03:42;;;;;;;30.27;27.87;;;16.70;99.90;;;;;;4897770;29;20459;-76
2021/08/31 06:06:09;;;;;;;28.70;26.30;;;16.70;99.90;;;;;;4897845;29;20466;-76
2021/08/31 06:08:36;;;;;;;28.80;26.60;;;16.80;99.90;;;;;;4897442;29;21079;-75
2021/08/31 06:11:03;;;;;;;29.07;26.80;;;17.00;99.90;;;;;;4897370;29;20463;-75
2021/08/31 06:13:30;;;;;;;28.83;26.73;;;17.00;99.90;;;;;;4897241;29;20513;-76
2021/08/31 06:15:56;;;;;;;29.13;26.80;;;16.90;99.90;;;;;;4897533;29;20840;-77
2021/08/31 06:18:24;;;;;;;27.73;25.63;;;16.90;99.90;;;;;;4897411;29;20463;-75
2021/08/31 06:20:51;;;;;;;29.17;26.77;;;16.90;99.90;;;;;;4897431;29;20459;-75
2021/08/31 06:23:18;;;;;;;28.07;25.13;;;16.90;99.90;;;;;;4897399;29;20498;-74
2021/08/31 06:25:46;;;;;;;28.87;26.67;;;17.00;99.90;;;;;;4897019;29;20953;-76
2021/08/31 06:28:12;;;;;;;28.00;25.87;;;16.90;99.90;;;;;;4896076;29;20451;-76
2021/08/31 06:30:39;;;;;;;27.97;25.93;;;17.00;99.90;;;;;;4897209;29;20459;-76
2021/08/31 06:33:06;;;;;;;28.20;26.20;;;17.00;99.90;;;;;;4897012;29;20494;-78
2021/08/31 06:35:34;;;;;;;26.70;24.80;;;17.10;99.90;;;;;;4897080;29;20452;-77
2021/08/31 06:38:00;;;;;;;27.30;25.30;;;17.00;99.90;;;;;;4896616;29;20455;-76
2021/08/31 06:40:27;;;;;;;27.80;25.90;;;17.10;99.90;;;;;;4897076;29;20459;-76
2021/08/31 06:42:54;;;;;;;27.93;25.83;;;17.20;99.90;;;;;;4897146;29;20466;-76
2021/08/31 06:45:21;;;;;;;29.70;24.60;;;17.30;99.90;;;;;;4896979;29;20456;-75
2021/08/31 06:47:48;;;;;;;27.60;25.40;;;17.30;99.90;;;;;;4896543;29;20507;-76
2021/08/31 06:50:16;;;;;;;26.00;23.73;;;17.40;99.90;;;;;;4896972;29;20459;-76
2021/08/31 06:52:46;;;;;;;24.17;22.50;;;17.50;99.90;;;;;;4896407;29;20582;-75
2021/08/31 06:55:13;;;;;;;24.90;23.20;;;17.40;99.90;;;;;;4896770;29;20463;-76
2021/08/31 06:57:40;;;;;;;24.23;22.63;;;17.50;99.90;;;;;;4897064;29;20451;-72
2021/08/31 07:00:08;;;;;;;22.23;20.80;;;17.50;99.90;;;;;;4896614;29;20454;-74
2021/08/31 07:02:35;;;;;;;21.87;20.43;;;17.50;99.90;;;;;;4896191;29;20458;-72
2021/08/31 07:05:02;;;;;;;21.47;20.00;;;17.40;99.90;;;;;;4896334;29;20455;-74
2021/08/31 07:07:29;;;;;;;23.00;21.30;;;17.40;99.90;;;;;;4896678;29;20817;-71
2021/08/31 07:09:57;;;;;;;23.00;21.43;;;17.40;99.90;;;;;;4896825;29;20470;-70
2021/08/31 07:12:24;;;;;;;21.70;20.00;;;17.50;99.90;;;;;;4896495;29;20483;-71
2021/08/31 07:14:51;;;;;;;22.30;20.80;;;17.50;99.90;;;;;;4896443;29;20467;-71
2021/08/31 07:17:18;;;;;;;23.27;21.87;;;17.50;99.90;;;;;;4896351;29;20460;-72
2021/08/31 07:19:45;;;;;;;22.30;20.80;;;17.50;99.90;;;;;;4896292;29;20459;-71
2021/08/31 07:22:12;;;;;;;22.30;20.83;;;17.70;99.90;;;;;;4896776;29;20783;-71
2021/08/31 07:24:38;;;;;;;21.57;20.10;;;17.70;99.90;;;;;;4896562;29;20451;-75
2021/08/31 07:27:07;;;;;;;21.37;19.97;;;17.90;99.90;;;;;;4894409;29;20459;-73
2021/08/31 07:29:33;;;;;;;21.30;19.70;;;17.90;99.90;;;;;;4896453;29;20671;-72
2021/08/31 07:32:00;;;;;;;21.30;19.80;;;17.90;99.90;;;;;;4894421;29;20491;-73
2021/08/31 07:34:28;;;;;;;22.50;20.90;;;18.00;99.90;;;;;;4894588;29;20482;-74
2021/08/31 07:36:55;;;;;;;22.10;20.43;;;18.10;99.90;;;;;;4896355;29;20457;-74
2021/08/31 07:39:21;;;;;;;21.00;19.67;;;18.20;99.90;;;;;;4895620;29;20458;-73
2021/08/31 07:41:48;;;;;;;21.27;19.60;;;18.30;99.90;;;;;;4895880;29;20906;-74
2021/08/31 07:44:17;;;;;;;21.90;20.50;;;18.40;99.90;;;;;;4895825;29;20462;-74
2021/08/31 07:46:46;;;;;;;21.27;19.97;;;18.50;99.90;;;;;;4895858;29;20537;-74
2021/08/31 07:49:14;;;;;;;22.73;20.93;;;18.50;99.90;;;;;;4895912;29;20822;-74
2021/08/31 07:51:41;;;;;;;22.40;20.80;;;18.60;99.90;;;;;;4895897;29;20842;-73
2021/08/31 07:54:08;;;;;;;21.30;20.03;;;18.50;99.90;;;;;;4895515;29;21009;-73
2021/08/31 07:56:35;;;;;;;22.70;21.23;;;18.40;99.90;;;;;;4895651;29;20614;-74
2021/08/31 07:59:02;;;;;;;20.57;19.37;;;18.40;99.90;;;;;;4895621;29;20462;-74
2021/08/31 08:01:30;;;;;;;21.30;19.87;;;18.20;99.90;;;;;;4895526;29;20462;-74
2021/08/31 08:03:57;;;;;;;21.10;19.90;;;18.20;99.90;;;;;;4895810;29;20462;-73
2021/08/31 08:06:24;;;;;;;22.07;20.67;;;18.20;99.90;;;;;;4895836;29;20459;-74
2021/08/31 08:08:52;;;;;;;22.63;21.03;;;18.40;99.90;;;;;;4895458;29;20459;-74
2021/08/31 08:11:19;;;;;;;20.83;19.63;;;18.50;99.90;;;;;;4895447;29;21113;-74
2021/08/31 08:13:45;;;;;;;20.80;19.30;;;18.50;99.90;;;;;;4895492;29;20491;-74
2021/08/31 08:16:12;;;;;;;19.47;18.43;;;18.50;99.90;;;;;;4895649;29;20463;-74
2021/08/31 08:18:40;;;;;;;20.83;19.20;;;18.60;99.90;;;;;;4895713;29;20447;-73
2021/08/31 08:21:07;;;;;;;20.07;18.87;;;18.80;99.90;;;;;;4895474;29;20653;-74
2021/08/31 08:23:35;;;;;;;19.07;17.67;;;18.80;99.90;;;;;;4895440;29;20479;-74
2021/08/31 08:26:01;;;;;;;20.20;18.77;;;18.80;99.90;;;;;;4895365;29;20463;-74
2021/08/31 08:28:28;;;;;;;21.33;20.03;;;19.00;99.90;;;;;;4895708;29;20459;-74
2021/08/31 08:30:55;;;;;;;20.57;19.20;;;19.10;99.90;;;;;;4895524;29;20950;-73
2021/08/31 08:33:22;;;;;;;21.67;20.37;;;19.10;99.90;;;;;;4895328;29;20494;-73
2021/08/31 08:35:50;;;;;;;21.90;20.50;;;18.90;99.90;;;;;;4895305;29;20451;-74
2021/08/31 08:38:17;;;;;;;20.30;19.10;;;19.10;99.90;;;;;;4895379;29;20455;-73
2021/08/31 08:40:44;;;;;;;19.87;18.60;;;19.40;99.90;;;;;;4895490;29;20451;-74
2021/08/31 08:43:13;;;;;;;20.53;19.13;;;19.40;99.90;;;;;;4895470;29;20953;-74
2021/08/31 08:45:44;;;;;;;20.00;18.90;;;19.40;99.90;;;;;;4895257;29;20511;-74
2021/08/31 08:48:17;;;;;;;19.43;18.23;;;20.00;99.90;;;;;;4895228;29;20487;-74
2021/08/31 08:50:45;;;;;;;20.87;19.67;;;20.60;99.90;;;;;;4896407;29;20447;-74
2021/08/31 08:53:13;;;;;;;19.60;18.33;;;20.70;99.90;;;;;;4899089;29;21012;-74
2021/08/31 08:55:40;;;;;;;20.60;19.30;;;20.50;99.90;;;;;;4899223;29;20814;-73
2021/08/31 08:58:07;;;;;;;20.07;18.60;;;20.10;99.90;;;;;;4898752;29;20462;-73
2021/08/31 09:00:53;;;;;;;19.43;18.33;;;19.90;99.90;;;;;;4898827;29;20451;-73
2021/08/31 09:03:20;;;;;;;20.97;19.47;;;19.80;99.90;;;;;;4898745;29;20451;-73
2021/08/31 09:05:48;;;;;;;20.40;19.20;;;20.00;99.90;;;;;;4898570;29;20447;-73
2021/08/31 09:08:16;;;;;;;19.73;18.53;;;19.80;99.90;;;;;;4898793;29;20455;-73
2021/08/31 09:10:45;;;;;;;21.67;20.20;;;20.00;99.90;;;;;;4898955;29;20462;-74
2021/08/31 09:13:12;;;;;;;20.53;18.90;;;20.30;99.90;;;;;;4898755;29;20495;-73
2021/08/31 09:15:40;;;;;;;19.60;18.37;;;20.50;99.90;;;;;;4898520;29;20466;-74
2021/08/31 09:18:16;;;;;;;19.37;18.07;;;20.80;99.90;;;;;;4898517;29;20459;-74
2021/08/31 09:20:47;;;;;;;18.43;17.43;;;21.60;99.90;;;;;;4898615;29;20450;-74
2021/08/31 09:23:21;;;;;;;19.93;18.53;;;21.70;99.90;;;;;;4898296;29;21037;-74
2021/08/31 09:25:50;;;;;;;19.67;18.57;;;21.80;99.90;;;;;;4898131;29;20469;-74
2021/08/31 09:28:23;;;;;;;18.70;17.60;;;22.00;99.90;;;;;;4898246;29;20458;-74
2021/08/31 09:30:57;;;;;;;18.23;17.30;;;22.10;99.90;;;;;;4898478;29;20546;-74
2021/08/31 09:33:28;;;;;;;18.27;17.30;;;22.10;99.90;;;;;;4898348;29;20910;-72
2021/08/31 09:36:10;;;;;;;17.57;16.60;;;22.20;99.90;;;;;;4898363;29;20964;-73
2021/08/31 09:38:53;;;;;;;18.57;17.30;;;22.30;99.90;;;;;;4898204;29;20835;-73
2021/08/31 09:41:28;;;;;;;17.83;16.73;;;22.40;99.90;;;;;;4898227;29;20819;-73
2021/08/31 09:43:56;;;;;;;18.00;17.00;;;22.60;99.90;;;;;;4898538;29;20458;-74
2021/08/31 09:46:23;;;;;;;17.27;16.20;;;22.60;99.90;;;;;;4897950;29;20487;-73
2021/08/31 09:48:49;;;;;;;17.50;16.40;;;22.60;99.90;;;;;;4897815;29;20491;-74
2021/08/31 09:51:17;;;;;;;18.43;17.43;;;23.00;99.90;;;;;;4897872;29;20466;-74
2021/08/31 09:53:45;;;;;;;18.20;17.30;;;23.30;99.90;;;;;;4898045;29;20491;-73
2021/08/31 09:56:13;;;;;;;19.77;18.70;;;23.50;99.90;;;;;;4898168;29;20470;-73
2021/08/31 09:58:41;;;;;;;17.97;16.77;;;23.70;99.90;;;;;;4898132;29;20467;-73
2021/08/31 10:01:08;;;;;;;17.07;16.10;;;24.40;99.90;;;;;;4897625;29;20459;-73
2021/08/31 10:03:35;;;;;;;17.80;16.80;;;24.40;99.90;;;;;;4897782;29;20737;-73
2021/08/31 10:06:04;;;;;;;18.63;17.53;;;24.40;99.90;;;;;;4897775;29;20458;-73
2021/08/31 10:08:33;;;;;;;18.03;17.00;;;24.50;99.90;;;;;;4897841;29;20463;-73
2021/08/31 10:11:03;;;;;;;17.87;16.87;;;24.20;99.90;;;;;;4897601;29;20455;-73
2021/08/31 10:13:31;;;;;;;17.07;16.00;;;23.70;99.90;;;;;;4897575;29;20495;-73
2021/08/31 10:15:59;;;;;;;17.30;16.37;;;22.90;99.90;;;;;;4897769;29;20455;-72
2021/08/31 10:18:27;;;;;;;18.03;17.07;;;22.20;99.90;;;;;;4897618;29;20467;-72
2021/08/31 10:20:58;;;;;;;16.80;15.90;;;21.90;99.90;;;;;;4897463;29;20482;-73
2021/08/31 10:23:26;;;;;;;17.20;16.23;;;22.10;99.90;;;;;;4897647;29;20446;-74
2021/08/31 10:25:53;;;;;;;17.23;16.37;;;22.00;99.90;;;;;;4897368;29;20464;-73
2021/08/31 10:28:27;;;;;;;17.37;16.47;;;22.30;99.90;;;;;;4897192;29;20460;-73
2021/08/31 10:30:55;;;;;;;16.00;15.10;;;22.10;99.90;;;;;;4897310;29;20474;-73
2021/08/31 10:33:34;;;;;;;17.87;16.97;;;22.20;99.90;;;;;;4896979;29;20495;-73
2021/08/31 10:36:02;;;;;;;16.67;15.77;;;22.50;99.90;;;;;;4897217;29;20455;-72
2021/08/31 10:38:54;;;;;;;16.00;15.30;;;22.30;99.90;;;;;;4897087;29;20796;-73
2021/08/31 10:41:36;;;;;;;16.57;15.40;;;22.00;99.90;;;;;;4897158;29;20455;-73
2021/08/31 10:44:05;;;;;;;15.33;14.63;;;22.20;99.90;;;;;;4897119;29;20450;-73
2021/08/31 10:47:06;;;;;;;16.40;15.60;;;22.50;99.90;;;;;;4896826;29;20483;-74
2021/08/31 10:49:47;;;;;;;16.40;15.50;;;22.50;99.90;;;;;;4892409;29;20464;-73
2021/08/31 10:52:14;;;;;;;17.73;16.53;;;22.70;99.90;;;;;;4897089;29;20819;-73
2021/08/31 10:54:45;;;;;;;16.90;16.00;;;22.90;99.90;;;;;;4896993;29;20513;-72
2021/08/31 10:57:43;;;;;;;17.20;16.20;;;23.30;99.90;;;;;;4896981;29;20455;-72
2021/08/31 11:00:43;;;;;;;17.13;16.03;;;22.80;99.90;;;;;;4838928;29;21011;-72
2021/08/31 11:03:11;;;;;;;18.13;16.70;;;22.80;99.90;;;;;;4896646;29;20455;-72
2021/08/31 11:05:38;;;;;;;17.50;16.27;;;22.80;99.90;;;;;;4896723;29;20958;-72
2021/08/31 11:08:15;;;;;;;16.50;15.70;;;23.10;99.90;;;;;;4896792;29;20876;-72
2021/08/31 11:10:43;;;;;;;17.90;16.63;;;23.10;99.90;;;;;;4896889;29;20942;-73
2021/08/31 11:13:12;;;;;;;16.23;15.43;;;23.00;99.90;;;;;;4896064;29;20505;-72
2021/08/31 11:15:40;;;;;;;16.23;15.40;;;23.00;99.90;;;;;;4896698;29;20451;-73
2021/08/31 11:18:09;;;;;;;16.43;15.63;;;23.10;99.90;;;;;;4896361;29;20818;-73
2021/08/31 11:20:38;;;;;;;17.40;16.60;;;23.40;99.90;;;;;;4896362;29;20511;-73
2021/08/31 11:23:08;;;;;;;16.40;15.70;;;23.70;99.90;;;;;;4896402;29;20820;-72
2021/08/31 11:25:38;;;;;;;15.90;15.20;;;23.70;99.50;;;;;;4896369;29;20459;-72
2021/08/31 11:28:07;;;;;;;15.70;15.00;;;23.50;99.20;;;;;;4896322;29;20459;-72
2021/08/31 11:30:48;;;;;;;16.80;15.70;;;23.40;99.40;;;;;;4896144;29;20463;-72
2021/08/31 11:33:19;;;;;;;17.70;16.80;;;23.20;99.90;;;;;;4896048;29;20498;-72
2021/08/31 11:35:48;;;;;;;16.80;16.00;;;23.50;99.90;;;;;;4896051;29;20830;-72
2021/08/31 11:38:15;;;;;;;17.27;16.43;;;23.70;99.60;;;;;;4896153;29;20463;-71
2021/08/31 11:40:42;;;;;;;17.10;16.20;;;23.60;99.90;;;;;;4896335;29;20455;-71
2021/08/31 11:43:09;;;;;;;16.10;15.40;;;23.60;99.90;;;;;;4896137;29;20862;-72
2021/08/31 11:45:38;;;;;;;16.97;16.13;;;24.50;99.80;;;;;;4895796;29;20461;-72
2021/08/31 11:48:06;;;;;;;17.93;17.00;;;25.60;97.60;;;;;;4895743;29;20487;-72
2021/08/31 11:50:33;;;;;;;17.90;16.90;;;26.30;96.20;;;;;;4895987;29;20491;-72
2021/08/31 11:53:15;;;;;;;17.97;17.07;;;26.00;96.90;;;;;;4895616;29;20455;-72
2021/08/31 11:55:42;;;;;;;18.93;17.83;;;25.70;96.20;;;;;;4896061;29;20954;-72
2021/08/31 11:58:09;;;;;;;18.37;17.47;;;24.70;97.10;;;;;;4895846;29;20463;-72
2021/08/31 12:00:43;;;;;;;19.70;18.50;;;24.10;98.90;;;;;;4895731;29;20451;-72
2021/08/31 12:03:24;;;;;;;18.10;17.20;;;23.70;99.30;;;;;;4895724;29;20550;-72
2021/08/31 12:05:55;;;;;;;16.53;15.63;;;23.90;99.60;;;;;;4895562;29;20466;-72
2021/08/31 12:08:25;;;;;;;17.30;16.40;;;23.90;99.50;;;;;;4895466;29;20470;-72
2021/08/31 12:10:54;;;;;;;16.50;15.60;;;23.70;99.00;;;;;;4895588;29;20538;-73
2021/08/31 12:13:22;;;;;;;18.20;17.10;;;23.70;99.40;;;;;;4895452;29;20459;-71
2021/08/31 12:15:50;;;;;;;18.00;16.97;;;23.70;99.50;;;;;;4895411;29;20458;-72
2021/08/31 12:18:19;;;;;;;16.03;15.23;;;23.60;99.60;;;;;;4895236;29;20822;-71
2021/08/31 12:20:47;;;;;;;16.27;15.37;;;23.80;99.70;;;;;;4895493;29;20523;-71
2021/08/31 12:23:14;;;;;;;16.60;15.80;;;24.10;99.80;;;;;;4895600;29;20470;-72
2021/08/31 12:25:44;;;;;;;17.23;16.37;;;24.90;97.50;;;;;;4895463;29;20463;-71
2021/08/31 12:28:11;;;;;;;17.07;16.30;;;25.80;96.20;;;;;;4895647;29;20457;-72
2021/08/31 12:30:39;;;;;;;17.47;16.47;;;25.90;95.20;;;;;;4895165;29;20541;-72
2021/08/31 12:33:06;;;;;;;17.40;16.50;;;25.90;95.40;;;;;;4895209;29;20831;-72